sensor_id;sensor_type;location;lat;lon;timestamp;P1;durP1;ratioP1;P2;durP2;ratioP2
41426;SDS011;27171;51.812;19.514;2022-11-15T00:00:51;81.38;;;37.85;;
41426;SDS011;27171;51.812;19.514;2022-11-15T00:04:07;87.28;;;40.17;;
41426;SDS011;27171;51.812;19.514;2022-11-15T00:07:22;83.20;;;37.75;;
41426;SDS011;27171;51.812;19.514;2022-11-15T00:10:37;97.95;;;41.28;;
41426;SDS011;27171;51.812;19.514;2022-11-15T00:13:56;74.28;;;41.17;;
41426;SDS011;27171;51.812;19.514;2022-11-15T00:17:11;70.97;;;36.72;;
41426;SDS011;27171;51.812;19.514;2022-11-15T00:20:25;101.43;;;38.17;;
41426;SDS011;27171;51.812;19.514;2022-11-15T00:23:40;82.28;;;36.83;;
41426;SDS011;27171;51.812;19.514;2022-11-15T00:26:55;71.63;;;32.83;;
41426;SDS011;27171;51.812;19.514;2022-11-15T00:30:09;69.82;;;34.75;;
41426;SDS011;27171;51.812;19.514;2022-11-15T00:33:25;81.97;;;33.08;;
41426;SDS011;27171;51.812;19.514;2022-11-15T00:36:40;89.65;;;35.58;;
41426;SDS011;27171;51.812;19.514;2022-11-15T00:39:55;109.15;;;35.88;;
41426;SDS011;27171;51.812;19.514;2022-11-15T00:43:10;73.05;;;35.78;;
41426;SDS011;27171;51.812;19.514;2022-11-15T00:46:25;67.60;;;33.55;;
41426;SDS011;27171;51.812;19.514;2022-11-15T00:49:40;67.55;;;32.03;;
41426;SDS011;27171;51.812;19.514;2022-11-15T00:52:55;87.82;;;34.90;;
41426;SDS011;27171;51.812;19.514;2022-11-15T00:56:09;82.78;;;37.05;;
41426;SDS011;27171;51.812;19.514;2022-11-15T00:59:24;74.57;;;38.53;;
41426;SDS011;27171;51.812;19.514;2022-11-15T01:02:39;78.72;;;36.03;;
41426;SDS011;27171;51.812;19.514;2022-11-15T01:05:58;74.78;;;34.83;;
41426;SDS011;27171;51.812;19.514;2022-11-15T01:09:14;75.43;;;34.85;;
41426;SDS011;27171;51.812;19.514;2022-11-15T01:12:29;88.13;;;35.95;;
41426;SDS011;27171;51.812;19.514;2022-11-15T01:15:44;83.22;;;35.40;;
41426;SDS011;27171;51.812;19.514;2022-11-15T01:18:59;72.32;;;33.03;;
41426;SDS011;27171;51.812;19.514;2022-11-15T01:22:14;76.85;;;34.25;;
41426;SDS011;27171;51.812;19.514;2022-11-15T01:25:29;82.15;;;34.97;;
41426;SDS011;27171;51.812;19.514;2022-11-15T01:28:44;84.28;;;36.10;;
41426;SDS011;27171;51.812;19.514;2022-11-15T01:31:59;85.97;;;35.97;;
41426;SDS011;27171;51.812;19.514;2022-11-15T01:35:14;84.00;;;35.22;;
41426;SDS011;27171;51.812;19.514;2022-11-15T01:38:29;84.55;;;35.08;;
41426;SDS011;27171;51.812;19.514;2022-11-15T01:41:44;70.90;;;34.72;;
41426;SDS011;27171;51.812;19.514;2022-11-15T01:44:59;73.05;;;35.85;;
41426;SDS011;27171;51.812;19.514;2022-11-15T01:48:15;71.05;;;34.88;;
41426;SDS011;27171;51.812;19.514;2022-11-15T01:51:31;80.22;;;37.95;;
41426;SDS011;27171;51.812;19.514;2022-11-15T01:54:50;82.60;;;34.95;;
41426;SDS011;27171;51.812;19.514;2022-11-15T01:58:13;81.47;;;36.40;;
41426;SDS011;27171;51.812;19.514;2022-11-15T02:01:28;76.47;;;34.75;;
41426;SDS011;27171;51.812;19.514;2022-11-15T02:04:46;77.70;;;35.38;;
41426;SDS011;27171;51.812;19.514;2022-11-15T02:08:02;65.97;;;35.65;;
41426;SDS011;27171;51.812;19.514;2022-11-15T02:11:17;93.53;;;35.65;;
41426;SDS011;27171;51.812;19.514;2022-11-15T02:14:32;68.35;;;35.47;;
41426;SDS011;27171;51.812;19.514;2022-11-15T02:28:33;80.63;;;35.30;;
41426;SDS011;27171;51.812;19.514;2022-11-15T02:32:00;78.43;;;34.78;;
41426;SDS011;27171;51.812;19.514;2022-11-15T02:38:52;68.95;;;32.22;;
41426;SDS011;27171;51.812;19.514;2022-11-15T02:42:21;75.47;;;35.35;;
41426;SDS011;27171;51.812;19.514;2022-11-15T02:45:45;69.43;;;33.50;;
41426;SDS011;27171;51.812;19.514;2022-11-15T02:49:04;90.38;;;35.38;;
41426;SDS011;27171;51.812;19.514;2022-11-15T02:52:21;72.03;;;33.58;;
41426;SDS011;27171;51.812;19.514;2022-11-15T02:55:37;78.97;;;34.15;;
41426;SDS011;27171;51.812;19.514;2022-11-15T03:05:35;94.80;;;34.88;;
41426;SDS011;27171;51.812;19.514;2022-11-15T03:12:30;92.75;;;33.28;;
41426;SDS011;27171;51.812;19.514;2022-11-15T03:16:02;76.40;;;32.13;;
41426;SDS011;27171;51.812;19.514;2022-11-15T03:22:37;65.80;;;30.98;;
41426;SDS011;27171;51.812;19.514;2022-11-15T03:25:56;75.72;;;32.08;;
41426;SDS011;27171;51.812;19.514;2022-11-15T03:29:14;77.75;;;33.05;;
41426;SDS011;27171;51.812;19.514;2022-11-15T03:32:35;62.40;;;30.33;;
41426;SDS011;27171;51.812;19.514;2022-11-15T03:36:01;68.55;;;31.92;;
41426;SDS011;27171;51.812;19.514;2022-11-15T03:39:17;73.80;;;30.77;;
41426;SDS011;27171;51.812;19.514;2022-11-15T03:42:38;66.85;;;29.88;;
41426;SDS011;27171;51.812;19.514;2022-11-15T03:46:01;85.85;;;33.50;;
41426;SDS011;27171;51.812;19.514;2022-11-15T03:49:22;83.95;;;31.10;;
41426;SDS011;27171;51.812;19.514;2022-11-15T03:52:42;66.93;;;30.95;;
41426;SDS011;27171;51.812;19.514;2022-11-15T03:55:58;74.63;;;28.80;;
41426;SDS011;27171;51.812;19.514;2022-11-15T03:59:12;82.43;;;29.13;;
41426;SDS011;27171;51.812;19.514;2022-11-15T04:02:26;92.82;;;30.30;;
41426;SDS011;27171;51.812;19.514;2022-11-15T04:05:40;67.10;;;28.50;;
41426;SDS011;27171;51.812;19.514;2022-11-15T04:08:55;78.75;;;28.65;;
41426;SDS011;27171;51.812;19.514;2022-11-15T04:12:10;59.55;;;26.33;;
41426;SDS011;27171;51.812;19.514;2022-11-15T04:15:25;56.20;;;26.40;;
41426;SDS011;27171;51.812;19.514;2022-11-15T04:18:40;52.70;;;26.40;;
41426;SDS011;27171;51.812;19.514;2022-11-15T04:21:55;67.95;;;28.40;;
41426;SDS011;27171;51.812;19.514;2022-11-15T04:25:10;50.50;;;26.33;;
41426;SDS011;27171;51.812;19.514;2022-11-15T04:28:25;56.30;;;28.70;;
41426;SDS011;27171;51.812;19.514;2022-11-15T04:31:40;59.40;;;26.58;;
41426;SDS011;27171;51.812;19.514;2022-11-15T04:34:55;54.17;;;26.90;;
41426;SDS011;27171;51.812;19.514;2022-11-15T04:38:10;68.03;;;29.48;;
41426;SDS011;27171;51.812;19.514;2022-11-15T04:41:24;64.45;;;27.77;;
41426;SDS011;27171;51.812;19.514;2022-11-15T04:44:39;46.92;;;25.70;;
41426;SDS011;27171;51.812;19.514;2022-11-15T04:47:54;62.00;;;25.75;;
41426;SDS011;27171;51.812;19.514;2022-11-15T04:51:09;51.17;;;24.13;;
41426;SDS011;27171;51.812;19.514;2022-11-15T04:54:24;61.30;;;23.90;;
41426;SDS011;27171;51.812;19.514;2022-11-15T04:57:39;54.78;;;24.80;;
41426;SDS011;27171;51.812;19.514;2022-11-15T05:00:54;56.17;;;24.85;;
41426;SDS011;27171;51.812;19.514;2022-11-15T05:04:09;55.10;;;25.00;;
41426;SDS011;27171;51.812;19.514;2022-11-15T05:07:22;64.80;;;25.98;;
41426;SDS011;27171;51.812;19.514;2022-11-15T05:10:37;80.15;;;25.80;;
41426;SDS011;27171;51.812;19.514;2022-11-15T05:13:51;54.17;;;25.25;;
41426;SDS011;27171;51.812;19.514;2022-11-15T05:17:06;60.17;;;25.50;;
41426;SDS011;27171;51.812;19.514;2022-11-15T05:20:20;74.30;;;25.42;;
41426;SDS011;27171;51.812;19.514;2022-11-15T05:23:35;60.55;;;27.13;;
41426;SDS011;27171;51.812;19.514;2022-11-15T05:26:51;68.78;;;28.33;;
41426;SDS011;27171;51.812;19.514;2022-11-15T05:30:06;62.97;;;27.15;;
41426;SDS011;27171;51.812;19.514;2022-11-15T05:33:21;55.35;;;27.58;;
41426;SDS011;27171;51.812;19.514;2022-11-15T05:36:38;54.30;;;26.50;;
41426;SDS011;27171;51.812;19.514;2022-11-15T05:39:56;54.30;;;27.23;;
41426;SDS011;27171;51.812;19.514;2022-11-15T05:43:11;64.38;;;28.65;;
41426;SDS011;27171;51.812;19.514;2022-11-15T05:46:26;56.45;;;28.48;;
41426;SDS011;27171;51.812;19.514;2022-11-15T05:49:42;57.70;;;29.50;;
41426;SDS011;27171;51.812;19.514;2022-11-15T05:53:00;59.92;;;27.88;;
41426;SDS011;27171;51.812;19.514;2022-11-15T05:56:15;55.08;;;27.40;;
41426;SDS011;27171;51.812;19.514;2022-11-15T05:59:31;51.85;;;28.55;;
41426;SDS011;27171;51.812;19.514;2022-11-15T06:02:47;49.72;;;27.75;;
41426;SDS011;27171;51.812;19.514;2022-11-15T06:06:02;63.50;;;30.67;;
41426;SDS011;27171;51.812;19.514;2022-11-15T06:09:17;54.75;;;28.95;;
41426;SDS011;27171;51.812;19.514;2022-11-15T06:12:32;48.53;;;27.05;;
41426;SDS011;27171;51.812;19.514;2022-11-15T06:15:47;54.92;;;27.77;;
41426;SDS011;27171;51.812;19.514;2022-11-15T06:19:02;56.20;;;27.65;;
41426;SDS011;27171;51.812;19.514;2022-11-15T06:22:17;55.28;;;28.23;;
41426;SDS011;27171;51.812;19.514;2022-11-15T06:25:32;52.67;;;28.77;;
41426;SDS011;27171;51.812;19.514;2022-11-15T06:28:47;53.05;;;27.27;;
41426;SDS011;27171;51.812;19.514;2022-11-15T06:32:02;56.30;;;28.00;;
41426;SDS011;27171;51.812;19.514;2022-11-15T06:35:17;56.95;;;27.25;;
41426;SDS011;27171;51.812;19.514;2022-11-15T06:38:32;51.95;;;26.58;;
41426;SDS011;27171;51.812;19.514;2022-11-15T06:41:47;54.33;;;29.80;;
41426;SDS011;27171;51.812;19.514;2022-11-15T06:45:02;53.80;;;29.27;;
41426;SDS011;27171;51.812;19.514;2022-11-15T06:48:18;55.97;;;29.65;;
41426;SDS011;27171;51.812;19.514;2022-11-15T06:51:33;61.40;;;27.95;;
41426;SDS011;27171;51.812;19.514;2022-11-15T06:54:48;58.30;;;28.33;;
41426;SDS011;27171;51.812;19.514;2022-11-15T06:58:03;55.05;;;27.27;;
41426;SDS011;27171;51.812;19.514;2022-11-15T07:01:18;68.28;;;28.85;;
41426;SDS011;27171;51.812;19.514;2022-11-15T07:04:33;53.72;;;29.55;;
41426;SDS011;27171;51.812;19.514;2022-11-15T07:07:55;52.53;;;27.80;;
41426;SDS011;27171;51.812;19.514;2022-11-15T07:11:11;63.05;;;28.55;;
41426;SDS011;27171;51.812;19.514;2022-11-15T07:14:25;40.75;;;24.50;;
41426;SDS011;27171;51.812;19.514;2022-11-15T07:17:40;45.03;;;27.60;;
41426;SDS011;27171;51.812;19.514;2022-11-15T07:20:55;41.90;;;25.73;;
41426;SDS011;27171;51.812;19.514;2022-11-15T07:24:14;45.70;;;27.83;;
41426;SDS011;27171;51.812;19.514;2022-11-15T07:27:29;42.42;;;26.48;;
41426;SDS011;27171;51.812;19.514;2022-11-15T07:30:44;44.88;;;27.75;;
41426;SDS011;27171;51.812;19.514;2022-11-15T07:33:59;48.78;;;29.10;;
41426;SDS011;27171;51.812;19.514;2022-11-15T07:37:14;44.85;;;27.15;;
41426;SDS011;27171;51.812;19.514;2022-11-15T07:40:30;45.25;;;27.23;;
41426;SDS011;27171;51.812;19.514;2022-11-15T07:43:45;40.08;;;26.65;;
41426;SDS011;27171;51.812;19.514;2022-11-15T07:47:00;45.42;;;28.25;;
41426;SDS011;27171;51.812;19.514;2022-11-15T07:50:16;44.88;;;28.45;;
41426;SDS011;27171;51.812;19.514;2022-11-15T07:53:31;42.90;;;27.88;;
41426;SDS011;27171;51.812;19.514;2022-11-15T07:56:46;43.83;;;28.10;;
41426;SDS011;27171;51.812;19.514;2022-11-15T08:00:01;45.15;;;27.83;;
41426;SDS011;27171;51.812;19.514;2022-11-15T08:03:18;43.53;;;28.23;;
41426;SDS011;27171;51.812;19.514;2022-11-15T08:06:33;44.85;;;26.90;;
41426;SDS011;27171;51.812;19.514;2022-11-15T08:09:47;39.42;;;26.20;;
41426;SDS011;27171;51.812;19.514;2022-11-15T08:13:03;39.30;;;26.48;;
41426;SDS011;27171;51.812;19.514;2022-11-15T08:16:20;40.63;;;27.80;;
41426;SDS011;27171;51.812;19.514;2022-11-15T08:19:34;42.90;;;27.48;;
41426;SDS011;27171;51.812;19.514;2022-11-15T08:22:48;42.78;;;27.95;;
41426;SDS011;27171;51.812;19.514;2022-11-15T08:26:04;39.78;;;27.58;;
41426;SDS011;27171;51.812;19.514;2022-11-15T08:29:19;43.20;;;28.08;;
41426;SDS011;27171;51.812;19.514;2022-11-15T08:32:34;44.17;;;29.23;;
41426;SDS011;27171;51.812;19.514;2022-11-15T08:35:49;42.53;;;27.95;;
41426;SDS011;27171;51.812;19.514;2022-11-15T08:39:04;42.63;;;28.33;;
41426;SDS011;27171;51.812;19.514;2022-11-15T08:42:20;42.63;;;28.60;;
41426;SDS011;27171;51.812;19.514;2022-11-15T08:45:35;42.75;;;28.73;;
41426;SDS011;27171;51.812;19.514;2022-11-15T08:48:51;38.03;;;27.08;;
41426;SDS011;27171;51.812;19.514;2022-11-15T08:52:06;45.10;;;29.73;;
41426;SDS011;27171;51.812;19.514;2022-11-15T08:55:21;42.45;;;29.02;;
41426;SDS011;27171;51.812;19.514;2022-11-15T08:58:36;45.33;;;30.25;;
41426;SDS011;27171;51.812;19.514;2022-11-15T09:01:51;41.17;;;29.33;;
41426;SDS011;27171;51.812;19.514;2022-11-15T09:05:06;41.45;;;30.77;;
41426;SDS011;27171;51.812;19.514;2022-11-15T09:08:22;42.17;;;29.00;;
41426;SDS011;27171;51.812;19.514;2022-11-15T09:11:37;37.00;;;27.98;;
41426;SDS011;27171;51.812;19.514;2022-11-15T09:14:52;39.67;;;28.83;;
41426;SDS011;27171;51.812;19.514;2022-11-15T09:18:07;39.92;;;28.42;;
41426;SDS011;27171;51.812;19.514;2022-11-15T09:21:22;41.25;;;27.77;;
41426;SDS011;27171;51.812;19.514;2022-11-15T09:24:37;37.70;;;27.38;;
41426;SDS011;27171;51.812;19.514;2022-11-15T09:27:52;37.55;;;27.00;;
41426;SDS011;27171;51.812;19.514;2022-11-15T09:31:07;35.47;;;26.75;;
41426;SDS011;27171;51.812;19.514;2022-11-15T09:34:22;34.38;;;25.42;;
41426;SDS011;27171;51.812;19.514;2022-11-15T09:37:36;35.03;;;26.50;;
41426;SDS011;27171;51.812;19.514;2022-11-15T09:40:52;33.33;;;26.95;;
41426;SDS011;27171;51.812;19.514;2022-11-15T09:44:38;38.17;;;27.13;;
41426;SDS011;27171;51.812;19.514;2022-11-15T09:51:50;32.25;;;25.02;;
41426;SDS011;27171;51.812;19.514;2022-11-15T09:54:53;32.90;;;25.23;;
41426;SDS011;27171;51.812;19.514;2022-11-15T09:57:55;32.92;;;25.35;;
41426;SDS011;27171;51.812;19.514;2022-11-15T10:01:04;29.58;;;22.77;;
41426;SDS011;27171;51.812;19.514;2022-11-15T10:04:13;37.08;;;26.15;;
41426;SDS011;27171;51.812;19.514;2022-11-15T10:10:34;31.00;;;23.33;;
41426;SDS011;27171;51.812;19.514;2022-11-15T10:13:43;33.35;;;24.83;;
41426;SDS011;27171;51.812;19.514;2022-11-15T10:16:53;41.03;;;25.48;;
41426;SDS011;27171;51.812;19.514;2022-11-15T10:23:18;32.08;;;23.92;;
41426;SDS011;27171;51.812;19.514;2022-11-15T10:26:21;28.65;;;23.75;;
41426;SDS011;27171;51.812;19.514;2022-11-15T10:29:24;26.98;;;22.30;;
41426;SDS011;27171;51.812;19.514;2022-11-15T10:32:25;31.98;;;23.73;;
41426;SDS011;27171;51.812;19.514;2022-11-15T10:35:28;27.88;;;22.42;;
41426;SDS011;27171;51.812;19.514;2022-11-15T10:38:30;28.73;;;22.10;;
41426;SDS011;27171;51.812;19.514;2022-11-15T10:44:41;28.88;;;20.65;;
41426;SDS011;27171;51.812;19.514;2022-11-15T10:51:01;25.27;;;19.80;;
41426;SDS011;27171;51.812;19.514;2022-11-15T10:54:30;26.40;;;19.88;;
41426;SDS011;27171;51.812;19.514;2022-11-15T10:57:37;28.05;;;21.63;;
41426;SDS011;27171;51.812;19.514;2022-11-15T11:00:39;27.02;;;21.67;;
41426;SDS011;27171;51.812;19.514;2022-11-15T11:03:40;24.70;;;21.15;;
41426;SDS011;27171;51.812;19.514;2022-11-15T11:06:50;25.83;;;20.63;;
41426;SDS011;27171;51.812;19.514;2022-11-15T11:10:32;23.42;;;19.58;;
41426;SDS011;27171;51.812;19.514;2022-11-15T11:13:30;25.95;;;20.20;;
41426;SDS011;27171;51.812;19.514;2022-11-15T11:16:41;28.52;;;20.70;;
41426;SDS011;27171;51.812;19.514;2022-11-15T11:23:08;28.10;;;22.95;;
41426;SDS011;27171;51.812;19.514;2022-11-15T11:35:34;21.27;;;17.02;;
41426;SDS011;27171;51.812;19.514;2022-11-15T11:48:52;27.17;;;19.42;;
41426;SDS011;27171;51.812;19.514;2022-11-15T11:52:09;21.73;;;18.40;;
41426;SDS011;27171;51.812;19.514;2022-11-15T11:55:26;25.48;;;18.95;;
41426;SDS011;27171;51.812;19.514;2022-11-15T11:58:45;22.95;;;19.83;;
41426;SDS011;27171;51.812;19.514;2022-11-15T12:01:48;25.10;;;21.67;;
41426;SDS011;27171;51.812;19.514;2022-11-15T12:04:50;24.58;;;20.40;;
41426;SDS011;27171;51.812;19.514;2022-11-15T12:07:54;25.52;;;20.95;;
41426;SDS011;27171;51.812;19.514;2022-11-15T12:14:47;22.50;;;18.58;;
41426;SDS011;27171;51.812;19.514;2022-11-15T12:17:52;26.40;;;20.40;;
41426;SDS011;27171;51.812;19.514;2022-11-15T12:20:58;23.92;;;18.45;;
41426;SDS011;27171;51.812;19.514;2022-11-15T12:24:06;21.77;;;17.20;;
41426;SDS011;27171;51.812;19.514;2022-11-15T12:30:40;22.60;;;17.75;;
41426;SDS011;27171;51.812;19.514;2022-11-15T12:36:56;19.00;;;15.73;;
41426;SDS011;27171;51.812;19.514;2022-11-15T12:40:14;24.80;;;18.92;;
41426;SDS011;27171;51.812;19.514;2022-11-15T12:49:42;20.85;;;18.13;;
41426;SDS011;27171;51.812;19.514;2022-11-15T12:53:30;18.88;;;16.25;;
41426;SDS011;27171;51.812;19.514;2022-11-15T12:56:20;20.80;;;17.52;;
41426;SDS011;27171;51.812;19.514;2022-11-15T12:59:47;19.13;;;16.38;;
41426;SDS011;27171;51.812;19.514;2022-11-15T13:18:57;25.40;;;20.38;;
41426;SDS011;27171;51.812;19.514;2022-11-15T13:21:59;23.67;;;20.27;;
41426;SDS011;27171;51.812;19.514;2022-11-15T13:25:13;24.70;;;19.80;;
41426;SDS011;27171;51.812;19.514;2022-11-15T13:28:20;26.80;;;20.13;;
41426;SDS011;27171;51.812;19.514;2022-11-15T13:31:42;25.05;;;20.15;;
41426;SDS011;27171;51.812;19.514;2022-11-15T13:34:47;23.92;;;20.67;;
41426;SDS011;27171;51.812;19.514;2022-11-15T13:37:50;27.70;;;21.02;;
41426;SDS011;27171;51.812;19.514;2022-11-15T13:40:53;26.40;;;22.65;;
41426;SDS011;27171;51.812;19.514;2022-11-15T13:43:55;26.02;;;22.30;;
41426;SDS011;27171;51.812;19.514;2022-11-15T13:47:04;27.83;;;21.95;;
41426;SDS011;27171;51.812;19.514;2022-11-15T13:50:05;24.70;;;22.05;;
41426;SDS011;27171;51.812;19.514;2022-11-15T13:53:11;23.00;;;20.45;;
41426;SDS011;27171;51.812;19.514;2022-11-15T13:56:13;32.05;;;22.35;;
41426;SDS011;27171;51.812;19.514;2022-11-15T13:59:21;24.63;;;20.67;;
41426;SDS011;27171;51.812;19.514;2022-11-15T14:05:33;23.85;;;21.20;;
41426;SDS011;27171;51.812;19.514;2022-11-15T14:08:34;29.80;;;23.33;;
41426;SDS011;27171;51.812;19.514;2022-11-15T14:11:36;28.95;;;23.38;;
41426;SDS011;27171;51.812;19.514;2022-11-15T14:14:44;28.83;;;23.83;;
41426;SDS011;27171;51.812;19.514;2022-11-15T14:17:46;34.95;;;25.90;;
41426;SDS011;27171;51.812;19.514;2022-11-15T14:20:51;28.90;;;22.73;;
41426;SDS011;27171;51.812;19.514;2022-11-15T14:24:17;30.77;;;22.42;;
41426;SDS011;27171;51.812;19.514;2022-11-15T14:27:24;27.98;;;22.13;;
41426;SDS011;27171;51.812;19.514;2022-11-15T14:30:27;31.25;;;25.00;;
41426;SDS011;27171;51.812;19.514;2022-11-15T14:33:29;29.60;;;23.70;;
41426;SDS011;27171;51.812;19.514;2022-11-15T14:36:33;31.98;;;24.10;;
41426;SDS011;27171;51.812;19.514;2022-11-15T14:39:34;32.05;;;25.23;;
41426;SDS011;27171;51.812;19.514;2022-11-15T14:42:35;30.17;;;24.88;;
41426;SDS011;27171;51.812;19.514;2022-11-15T14:45:37;30.92;;;25.08;;
41426;SDS011;27171;51.812;19.514;2022-11-15T14:48:39;34.47;;;25.42;;
41426;SDS011;27171;51.812;19.514;2022-11-15T14:51:40;30.75;;;23.05;;
41426;SDS011;27171;51.812;19.514;2022-11-15T14:54:41;25.42;;;20.20;;
41426;SDS011;27171;51.812;19.514;2022-11-15T14:57:42;28.00;;;21.90;;
41426;SDS011;27171;51.812;19.514;2022-11-15T15:00:43;29.20;;;21.50;;
41426;SDS011;27171;51.812;19.514;2022-11-15T15:03:44;26.67;;;21.27;;
41426;SDS011;27171;51.812;19.514;2022-11-15T15:06:46;28.55;;;23.25;;
41426;SDS011;27171;51.812;19.514;2022-11-15T15:09:47;33.67;;;25.80;;
41426;SDS011;27171;51.812;19.514;2022-11-15T15:12:48;36.50;;;28.63;;
41426;SDS011;27171;51.812;19.514;2022-11-15T15:15:50;42.40;;;30.00;;
41426;SDS011;27171;51.812;19.514;2022-11-15T15:18:52;44.05;;;33.05;;
41426;SDS011;27171;51.812;19.514;2022-11-15T15:21:53;49.72;;;35.47;;
41426;SDS011;27171;51.812;19.514;2022-11-15T15:24:54;53.88;;;39.10;;
41426;SDS011;27171;51.812;19.514;2022-11-15T15:27:56;75.75;;;54.22;;
41426;SDS011;27171;51.812;19.514;2022-11-15T15:30:57;91.00;;;67.70;;
41426;SDS011;27171;51.812;19.514;2022-11-15T15:33:58;72.65;;;55.92;;
41426;SDS011;27171;51.812;19.514;2022-11-15T15:40:27;63.33;;;44.08;;
41426;SDS011;27171;51.812;19.514;2022-11-15T15:43:30;77.00;;;56.70;;
41426;SDS011;27171;51.812;19.514;2022-11-15T15:46:32;69.53;;;50.20;;
41426;SDS011;27171;51.812;19.514;2022-11-15T15:49:34;72.68;;;48.88;;
41426;SDS011;27171;51.812;19.514;2022-11-15T15:55:36;58.78;;;40.38;;
41426;SDS011;27171;51.812;19.514;2022-11-15T15:58:38;65.55;;;43.75;;
41426;SDS011;27171;51.812;19.514;2022-11-15T16:01:39;70.93;;;47.67;;
41426;SDS011;27171;51.812;19.514;2022-11-15T16:10:42;64.85;;;41.88;;
41426;SDS011;27171;51.812;19.514;2022-11-15T16:13:43;71.95;;;49.53;;
41426;SDS011;27171;51.812;19.514;2022-11-15T16:19:46;61.13;;;41.25;;
41426;SDS011;27171;51.812;19.514;2022-11-15T16:22:48;82.43;;;54.92;;
41426;SDS011;27171;51.812;19.514;2022-11-15T16:25:54;85.22;;;57.15;;
41426;SDS011;27171;51.812;19.514;2022-11-15T16:28:56;88.10;;;56.28;;
41426;SDS011;27171;51.812;19.514;2022-11-15T16:31:58;91.53;;;58.45;;
41426;SDS011;27171;51.812;19.514;2022-11-15T16:35:00;89.07;;;56.28;;
41426;SDS011;27171;51.812;19.514;2022-11-15T16:38:01;88.40;;;55.55;;
41426;SDS011;27171;51.812;19.514;2022-11-15T16:41:02;157.70;;;60.13;;
41426;SDS011;27171;51.812;19.514;2022-11-15T16:47:04;127.43;;;52.75;;
41426;SDS011;27171;51.812;19.514;2022-11-15T16:53:06;160.57;;;50.55;;
41426;SDS011;27171;51.812;19.514;2022-11-15T16:59:27;265.70;;;56.17;;
41426;SDS011;27171;51.812;19.514;2022-11-15T17:02:28;106.20;;;51.13;;
41426;SDS011;27171;51.812;19.514;2022-11-15T17:05:29;87.68;;;50.60;;
41426;SDS011;27171;51.812;19.514;2022-11-15T17:08:30;132.48;;;50.95;;
41426;SDS011;27171;51.812;19.514;2022-11-15T17:11:32;96.90;;;51.72;;
41426;SDS011;27171;51.812;19.514;2022-11-15T17:14:33;115.68;;;50.78;;
41426;SDS011;27171;51.812;19.514;2022-11-15T17:20:35;74.70;;;43.90;;
41426;SDS011;27171;51.812;19.514;2022-11-15T17:26:37;146.88;;;46.58;;
41426;SDS011;27171;51.812;19.514;2022-11-15T17:29:44;109.88;;;47.12;;
41426;SDS011;27171;51.812;19.514;2022-11-15T17:35:53;129.93;;;47.30;;
41426;SDS011;27171;51.812;19.514;2022-11-15T17:38:58;150.77;;;47.58;;
41426;SDS011;27171;51.812;19.514;2022-11-15T17:41:59;92.22;;;46.10;;
41426;SDS011;27171;51.812;19.514;2022-11-15T17:48:01;83.97;;;41.03;;
41426;SDS011;27171;51.812;19.514;2022-11-15T17:54:04;89.28;;;43.65;;
41426;SDS011;27171;51.812;19.514;2022-11-15T18:00:06;127.57;;;43.95;;
41426;SDS011;27171;51.812;19.514;2022-11-15T18:03:08;139.80;;;46.75;;
41426;SDS011;27171;51.812;19.514;2022-11-15T18:09:10;91.53;;;42.75;;
41426;SDS011;27171;51.812;19.514;2022-11-15T18:12:11;109.53;;;45.40;;
41426;SDS011;27171;51.812;19.514;2022-11-15T18:18:13;148.00;;;39.38;;
41426;SDS011;27171;51.812;19.514;2022-11-15T18:24:16;79.68;;;40.78;;
41426;SDS011;27171;51.812;19.514;2022-11-15T18:30:18;108.70;;;44.55;;
41426;SDS011;27171;51.812;19.514;2022-11-15T18:33:19;131.18;;;48.05;;
41426;SDS011;27171;51.812;19.514;2022-11-15T18:39:22;77.03;;;37.42;;
41426;SDS011;27171;51.812;19.514;2022-11-15T18:42:24;81.20;;;41.15;;
41426;SDS011;27171;51.812;19.514;2022-11-15T18:48:28;79.88;;;35.83;;
41426;SDS011;27171;51.812;19.514;2022-11-15T18:51:30;60.55;;;36.88;;
41426;SDS011;27171;51.812;19.514;2022-11-15T18:54:31;86.65;;;39.38;;
41426;SDS011;27171;51.812;19.514;2022-11-15T19:00:33;77.88;;;32.75;;
41426;SDS011;27171;51.812;19.514;2022-11-15T19:06:41;67.82;;;33.28;;
41426;SDS011;27171;51.812;19.514;2022-11-15T19:09:44;89.30;;;38.63;;
41426;SDS011;27171;51.812;19.514;2022-11-15T19:15:46;67.90;;;34.95;;
41426;SDS011;27171;51.812;19.514;2022-11-15T19:18:47;99.00;;;37.97;;
41426;SDS011;27171;51.812;19.514;2022-11-15T19:21:52;71.82;;;36.67;;
41426;SDS011;27171;51.812;19.514;2022-11-15T19:24:53;70.88;;;37.55;;
41426;SDS011;27171;51.812;19.514;2022-11-15T19:34:11;94.20;;;34.03;;
41426;SDS011;27171;51.812;19.514;2022-11-15T19:37:12;158.82;;;34.95;;
41426;SDS011;27171;51.812;19.514;2022-11-15T19:43:14;91.20;;;32.33;;
41426;SDS011;27171;51.812;19.514;2022-11-15T19:49:17;104.57;;;31.42;;
41426;SDS011;27171;51.812;19.514;2022-11-15T19:55:21;54.53;;;26.77;;
41426;SDS011;27171;51.812;19.514;2022-11-15T20:01:24;144.35;;;33.85;;
41426;SDS011;27171;51.812;19.514;2022-11-15T20:04:27;91.95;;;35.15;;
41426;SDS011;27171;51.812;19.514;2022-11-15T20:10:29;79.57;;;33.13;;
41426;SDS011;27171;51.812;19.514;2022-11-15T20:13:31;79.50;;;33.25;;
41426;SDS011;27171;51.812;19.514;2022-11-15T20:16:33;77.85;;;32.60;;
41426;SDS011;27171;51.812;19.514;2022-11-15T20:19:35;83.57;;;36.50;;
41426;SDS011;27171;51.812;19.514;2022-11-15T20:22:36;154.60;;;37.72;;
41426;SDS011;27171;51.812;19.514;2022-11-15T20:28:39;151.88;;;36.17;;
41426;SDS011;27171;51.812;19.514;2022-11-15T20:31:45;83.45;;;35.47;;
41426;SDS011;27171;51.812;19.514;2022-11-15T20:34:50;75.40;;;33.75;;
41426;SDS011;27171;51.812;19.514;2022-11-15T20:40:52;100.88;;;30.05;;
41426;SDS011;27171;51.812;19.514;2022-11-15T20:43:54;97.13;;;35.05;;
41426;SDS011;27171;51.812;19.514;2022-11-15T20:46:55;94.80;;;37.15;;
41426;SDS011;27171;51.812;19.514;2022-11-15T20:52:57;82.63;;;32.40;;
41426;SDS011;27171;51.812;19.514;2022-11-15T20:59:02;92.97;;;34.58;;
41426;SDS011;27171;51.812;19.514;2022-11-15T21:02:03;90.03;;;39.00;;
41426;SDS011;27171;51.812;19.514;2022-11-15T21:11:06;98.00;;;30.25;;
41426;SDS011;27171;51.812;19.514;2022-11-15T21:14:08;93.70;;;35.47;;
41426;SDS011;27171;51.812;19.514;2022-11-15T21:20:10;75.55;;;29.80;;
41426;SDS011;27171;51.812;19.514;2022-11-15T21:23:12;93.38;;;33.88;;
41426;SDS011;27171;51.812;19.514;2022-11-15T21:26:13;108.45;;;38.25;;
41426;SDS011;27171;51.812;19.514;2022-11-15T21:29:14;113.55;;;39.08;;
41426;SDS011;27171;51.812;19.514;2022-11-15T21:32:15;115.43;;;38.65;;
41426;SDS011;27171;51.812;19.514;2022-11-15T21:35:16;91.00;;;37.80;;
41426;SDS011;27171;51.812;19.514;2022-11-15T21:38:17;92.32;;;38.08;;
41426;SDS011;27171;51.812;19.514;2022-11-15T21:44:19;106.57;;;35.03;;
41426;SDS011;27171;51.812;19.514;2022-11-15T21:50:21;104.63;;;36.05;;
41426;SDS011;27171;51.812;19.514;2022-11-15T21:56:24;130.88;;;38.08;;
41426;SDS011;27171;51.812;19.514;2022-11-15T21:59:26;95.15;;;37.83;;